X  Chiuso Dati meteorologici dell'aviazione (METAR)     ETAR Ramstein Air Base
Temperatura
11°C Temperatura
7°C Punto di rugiada
77% Umidità



Vento
8 MPH
13 KM/O
4 M/S
7 KTS



40°
NE
Condizioni attuali

Nuvoloso Nuvoloso
Pressione 999.32 (hPa) - 29.51 (inHg)
Visibilità 6 (miglio) - 9.7 (km)
Aeroporto
Codice-Aeroporto ETAR

Posizione: Ramstein Air Base
Distanza: 25 (mi)

Metar:
ETAR 261255Z AUTO 04007KT 9999 OVC026 11/07 A2951 RMK AO2 CIG 024 RWY26 SLP999 T01080071

Ore: 26-02-2024 13:55 CET